Česky Dansk Deutsch English Español Suomi Français Magyar Italiano Nederlands norsk Polski Português svenska Türkçe

 

Het Weer

Carcassonne (Frankrijk)

11:30, 23 augustus 2016 (GMT)

NWNNE
WE
SWSSE
Home            
Carcassonne Perpignan Albi Beziers / Vias Toulouse / Francazal Toulouse / Blagnac St-Girons Cassagnes-Begonhes Rodez Montpellier Auch Gerona / Costa Brava Mende / Brenoux Agen Nimes / Garons Nimes / Courbessac Aurillac Sabadell Istres Barcelona / Aeropuerto Pau Brive Orange

Om een weerknop op uw website of weblog te plaatsen, copieer onderstaande code en plak die in uw pagina. In het eerste vakje staat HTML-code, in het tweede vakje UBB-code.


Add to Google

Details

Wind speed:5 bf, 17 kn, 8.7 m/s, 19.6 miles/h, 31.5 km/h
Wind direction:E, 090°
Visibility:Greater than 10000 m, 10 km, 32800 ft, 6.2 miles
Clouds:CAVOC
Temperature:29°C, 84°F
Gefühlte Temperatur:28°C, 83°F
Dew-point:14°C, 57°F
Atmospheric pressure:1021 hPa, 765.8 mmHg, 30.15 inHg, 1.008 atm
Relative humidity:39.9 %
METAR:LFMK 231130Z AUTO 09017KT CAVOK 29/14 Q1021 TEMPO 09015G25KT

Snelkoppelingen

Actuele weersinformatie van de hele wereld. Voeg locaties toe met het plus (+) symbool. Deze snelkoppelingen kunnen worden toegevoegd aan Google.

Lid van de Technetium groep

website free tracking
StatCounter NetStat W3C Validator

10-08-2022 07:21:34
astro.technetium.be money.technetium.be phote.technetium.be tafeltennistafel.technetium.be www.ligfiets.net